Time;durP1;ratioP1;P1;durP2;ratioP2;P2;SDS_P1;SDS_P2;PMS_P1;PMS_P2;Temp;Humidity;BMP_temperature;BMP_pressure;BME280_temperature;BME280_humidity;BME280_pressure;Samples;Min_cycle;Max_cycle;Signal;HPM_P1;HPM_P2
2024/01/10 00:02:14;;;;;;;0.00;0.00;;;25.40;50.90;;;;;;5088217;28;20225;-42
2024/01/10 00:04:44;;;;;;;0.00;0.00;;;25.40;50.90;;;;;;5087828;28;20202;-40
2024/01/10 00:07:15;;;;;;;0.00;0.00;;;25.40;51.00;;;;;;5093182;28;20217;-41
2024/01/10 00:09:46;;;;;;;0.00;0.00;;;25.50;51.10;;;;;;5088555;28;20234;-40
2024/01/10 00:12:17;;;;;;;0.00;0.00;;;25.50;51.10;;;;;;5087746;28;20236;-40
2024/01/10 00:14:49;;;;;;;0.00;0.00;;;25.50;51.10;;;;;;5088178;28;20691;-43
2024/01/10 00:17:20;;;;;;;0.00;0.00;;;25.60;51.20;;;;;;5087872;28;20202;-41
2024/01/10 00:19:51;;;;;;;0.00;0.00;;;25.60;51.20;;;;;;5088012;28;20202;-40
2024/01/10 00:22:21;;;;;;;0.00;0.00;;;25.60;51.20;;;;;;5088235;28;20217;-53
2024/01/10 00:24:52;;;;;;;0.00;0.00;;;25.60;51.20;;;;;;5087925;28;20243;-52
2024/01/10 00:27:22;;;;;;;0.00;0.00;;;25.60;51.40;;;;;;5088898;28;20217;-52
2024/01/10 00:29:56;;;;;;;0.00;0.00;;;25.60;51.60;;;;;;5088036;28;20190;-51
2024/01/10 00:32:27;;;;;;;0.00;0.00;;;25.60;51.70;;;;;;5088037;28;20271;-40
2024/01/10 00:34:57;;;;;;;0.00;0.00;;;25.60;51.80;;;;;;5088516;28;20197;-40
2024/01/10 00:37:29;;;;;;;0.00;0.00;;;25.60;51.80;;;;;;5094163;28;20209;-43
2024/01/10 00:39:59;;;;;;;0.00;0.00;;;25.60;51.90;;;;;;5090667;28;20190;-41
2024/01/10 00:42:30;;;;;;;0.00;0.00;;;25.50;51.90;;;;;;5087997;28;20222;-41
2024/01/10 00:45:03;;;;;;;0.00;0.00;;;25.60;52.00;;;;;;5087593;28;20190;-41
2024/01/10 00:47:33;;;;;;;0.00;0.00;;;25.60;52.90;;;;;;5087751;28;20579;-40
2024/01/10 00:50:04;;;;;;;0.00;0.00;;;25.60;53.00;;;;;;5087659;28;20201;-39
2024/01/10 00:52:34;;;;;;;0.00;0.00;;;25.60;53.00;;;;;;5098697;28;20221;-40
2024/01/10 00:55:05;;;;;;;0.00;0.00;;;25.70;52.90;;;;;;5090844;28;20195;-39
2024/01/10 00:57:37;;;;;;;0.00;0.00;;;25.70;52.80;;;;;;5087488;28;20194;-41
2024/01/10 01:00:11;;;;;;;0.00;0.00;;;25.70;52.70;;;;;;5087148;28;20194;-39
2024/01/10 01:02:42;;;;;;;0.00;0.00;;;25.80;52.50;;;;;;5087139;28;20226;-39
2024/01/10 01:05:13;;;;;;;0.00;0.00;;;25.80;52.50;;;;;;5087321;28;20194;-53
2024/01/10 01:07:43;;;;;;;0.00;0.00;;;25.80;52.50;;;;;;5096059;28;20260;-57
2024/01/10 01:10:14;;;;;;;0.00;0.00;;;25.90;52.60;;;;;;5089641;28;20197;-54
2024/01/10 01:12:44;;;;;;;0.00;0.00;;;25.80;52.70;;;;;;5087521;28;20202;-56
2024/01/10 01:15:17;;;;;;;0.00;0.00;;;25.80;52.80;;;;;;5087362;28;20274;-40
2024/01/10 01:17:48;;;;;;;0.00;0.00;;;25.80;53.10;;;;;;5087567;28;20205;-40
2024/01/10 01:20:18;;;;;;;0.00;0.00;;;25.80;53.10;;;;;;5086622;28;20205;-41
2024/01/10 01:22:49;;;;;;;0.00;0.00;;;25.80;53.00;;;;;;5087492;28;20194;-40
2024/01/10 01:25:20;;;;;;;0.00;0.00;;;25.80;52.90;;;;;;5084347;28;20217;-41
2024/01/10 01:27:50;;;;;;;0.00;0.00;;;25.90;52.80;;;;;;5088184;28;20673;-40
2024/01/10 01:30:23;;;;;;;0.00;0.00;;;25.90;52.70;;;;;;5087452;28;20202;-40
2024/01/10 01:32:54;;;;;;;0.00;0.00;;;25.90;52.70;;;;;;5087604;28;20210;-41
2024/01/10 01:35:25;;;;;;;0.00;0.00;;;26.00;52.70;;;;;;5087594;28;20238;-41
2024/01/10 01:37:55;;;;;;;0.00;0.00;;;26.00;52.60;;;;;;5091928;28;20202;-41
2024/01/10 01:40:26;;;;;;;0.00;0.00;;;26.00;52.50;;;;;;5087142;28;20654;-40
2024/01/10 01:42:57;;;;;;;0.00;0.00;;;26.00;52.50;;;;;;5087405;28;20195;-41
2024/01/10 01:45:29;;;;;;;0.00;0.00;;;26.10;52.50;;;;;;5084157;28;20194;-42
2024/01/10 01:48:00;;;;;;;0.00;0.00;;;26.10;52.40;;;;;;5087330;28;20237;-41
2024/01/10 01:50:30;;;;;;;0.00;0.00;;;26.20;52.40;;;;;;5090764;28;20198;-42
2024/01/10 01:53:01;;;;;;;0.00;0.00;;;26.20;52.30;;;;;;5087704;28;20198;-40
2024/01/10 01:55:32;;;;;;;0.00;0.00;;;26.20;52.30;;;;;;5090622;28;20656;-47
2024/01/10 01:58:02;;;;;;;0.00;0.00;;;26.20;52.20;;;;;;5089900;28;20198;-40
2024/01/10 02:00:35;;;;;;;0.00;0.00;;;26.20;52.10;;;;;;5090029;28;20205;-40
2024/01/10 02:03:07;;;;;;;0.00;0.00;;;26.20;52.00;;;;;;5090376;28;20194;-40
2024/01/10 02:05:38;;;;;;;0.00;0.00;;;26.30;52.00;;;;;;5090300;28;20537;-41
2024/01/10 02:08:09;;;;;;;0.00;0.00;;;26.30;52.00;;;;;;5103234;28;20225;-43
2024/01/10 02:10:40;;;;;;;0.00;0.00;;;26.30;51.90;;;;;;5092598;28;20214;-41
2024/01/10 02:13:11;;;;;;;0.00;0.00;;;26.30;51.90;;;;;;5090791;28;20198;-40
2024/01/10 02:15:44;;;;;;;0.00;0.00;;;26.40;51.90;;;;;;5089786;28;20194;-42
2024/01/10 02:18:15;;;;;;;0.00;0.00;;;26.40;51.80;;;;;;5090520;28;20229;-44
2024/01/10 02:20:47;;;;;;;0.00;0.00;;;26.50;51.80;;;;;;5090462;28;20210;-41
2024/01/10 02:23:18;;;;;;;0.00;0.00;;;26.50;51.70;;;;;;5090020;28;20198;-40
2024/01/10 02:25:50;;;;;;;0.00;0.00;;;26.50;51.70;;;;;;5090700;28;20194;-41
2024/01/10 02:28:23;;;;;;;0.00;0.00;;;26.50;51.70;;;;;;5089468;28;20270;-40
2024/01/10 02:30:55;;;;;;;0.00;0.00;;;26.50;51.60;;;;;;5089943;28;20229;-41
2024/01/10 02:33:25;;;;;;;0.00;0.00;;;26.60;51.70;;;;;;5090101;28;20662;-40
2024/01/10 02:35:56;;;;;;;0.00;0.00;;;26.60;51.60;;;;;;5090627;28;20194;-41
2024/01/10 02:38:27;;;;;;;0.00;0.00;;;26.60;51.60;;;;;;5099937;28;20198;-41
2024/01/10 02:41:00;;;;;;;0.00;0.00;;;26.60;51.50;;;;;;5090021;28;20221;-41
2024/01/10 02:43:31;;;;;;;0.00;0.00;;;26.60;51.50;;;;;;5090161;28;20198;-41
2024/01/10 02:46:01;;;;;;;0.00;0.00;;;26.70;51.40;;;;;;5090036;28;20202;-41
2024/01/10 02:48:32;;;;;;;0.00;0.00;;;26.60;51.30;;;;;;5090185;28;20226;-40
2024/01/10 02:51:02;;;;;;;0.00;0.00;;;26.70;51.40;;;;;;5089690;28;20210;-53
2024/01/10 02:53:33;;;;;;;0.00;0.00;;;26.70;51.40;;;;;;5089428;28;20422;-48
2024/01/10 02:56:06;;;;;;;0.00;0.00;;;26.70;51.80;;;;;;5088839;28;20856;-56
2024/01/10 02:58:36;;;;;;;0.00;0.00;;;26.80;51.60;;;;;;5088994;28;20435;-52
2024/01/10 03:01:07;;;;;;;0.00;0.00;;;27.00;51.40;;;;;;5088455;28;20928;-54
2024/01/10 03:03:39;;;;;;;0.00;0.00;;;27.20;50.90;;;;;;5089141;28;20517;-48
2024/01/10 03:06:10;;;;;;;0.00;0.00;;;27.40;50.70;;;;;;5088304;28;20421;-50
2024/01/10 03:08:41;;;;;;;0.00;0.00;;;27.60;50.10;;;;;;5106131;28;20675;-43
2024/01/10 03:11:13;;;;;;;0.00;0.00;;;27.60;49.80;;;;;;5090695;28;20214;-46
2024/01/10 03:13:45;;;;;;;0.00;0.00;;;27.60;49.70;;;;;;5089323;28;20204;-43
2024/01/10 03:16:17;;;;;;;0.00;0.00;;;27.50;49.70;;;;;;5089512;28;20190;-42
2024/01/10 03:18:47;;;;;;;0.00;0.00;;;27.40;49.80;;;;;;5088572;28;20202;-40
2024/01/10 03:21:22;;;;;;;0.00;0.00;;;27.20;50.00;;;;;;5089445;28;20587;-44
2024/01/10 03:23:53;;;;;;;0.00;0.00;;;27.20;50.20;;;;;;5088846;28;20193;-43
2024/01/10 03:26:25;;;;;;;0.00;0.00;;;27.10;50.30;;;;;;5089418;28;20278;-44
2024/01/10 03:28:56;;;;;;;0.00;0.00;;;27.10;50.60;;;;;;5088448;28;20232;-42
2024/01/10 03:31:27;;;;;;;0.00;0.00;;;27.00;50.60;;;;;;5089256;28;20721;-42
2024/01/10 03:33:58;;;;;;;0.00;0.00;;;27.00;50.70;;;;;;5090060;28;20213;-41
2024/01/10 03:36:29;;;;;;;0.00;0.00;;;27.00;50.80;;;;;;5088389;28;20198;-42
2024/01/10 03:38:59;;;;;;;0.00;0.00;;;26.90;50.90;;;;;;5112119;28;20248;-44
2024/01/10 03:41:32;;;;;;;0.00;0.00;;;26.90;51.00;;;;;;5112729;28;20691;-43
2024/01/10 03:44:02;;;;;;;0.00;0.00;;;26.90;51.00;;;;;;5112783;28;20186;-43
2024/01/10 03:46:33;;;;;;;0.00;0.00;;;26.90;51.00;;;;;;5112873;28;20196;-42
2024/01/10 03:49:03;;;;;;;0.00;0.00;;;26.90;51.10;;;;;;5101265;28;20229;-43
2024/01/10 03:51:34;;;;;;;0.00;0.00;;;26.90;51.20;;;;;;5091799;28;20214;-45
2024/01/10 03:54:05;;;;;;;0.00;0.00;;;26.90;51.20;;;;;;5092156;28;20795;-46
2024/01/10 03:56:37;;;;;;;0.00;0.00;;;26.90;51.20;;;;;;5092384;28;20237;-43
2024/01/10 03:59:08;;;;;;;0.00;0.00;;;26.90;51.20;;;;;;5092262;28;20202;-43
2024/01/10 04:01:39;;;;;;;0.00;0.00;;;26.90;51.20;;;;;;5092360;28;20214;-42
2024/01/10 04:04:09;;;;;;;0.00;0.00;;;26.90;51.20;;;;;;5092202;28;20234;-42
2024/01/10 04:06:40;;;;;;;0.00;0.00;;;26.90;51.20;;;;;;5092371;28;20201;-44
2024/01/10 04:09:11;;;;;;;0.00;0.00;;;27.00;51.20;;;;;;5071766;28;20234;-42
2024/01/10 04:11:43;;;;;;;0.00;0.00;;;27.00;51.20;;;;;;5071143;28;20292;-42
2024/01/10 04:14:15;;;;;;;0.00;0.00;;;26.90;51.10;;;;;;5082338;28;20201;-42
2024/01/10 04:16:45;;;;;;;0.00;0.00;;;27.00;51.10;;;;;;5091388;28;20202;-42
2024/01/10 04:19:16;;;;;;;0.00;0.00;;;27.00;51.10;;;;;;5091800;28;20209;-42
2024/01/10 04:21:47;;;;;;;0.00;0.00;;;27.00;51.10;;;;;;5091999;28;20743;-43
2024/01/10 04:24:17;;;;;;;0.00;0.00;;;27.00;51.10;;;;;;5092078;28;20564;-42
2024/01/10 04:26:50;;;;;;;0.00;0.00;;;27.00;51.10;;;;;;5091538;28;20197;-45
2024/01/10 04:29:20;;;;;;;0.00;0.00;;;27.00;51.00;;;;;;5091528;28;20218;-43
2024/01/10 04:31:52;;;;;;;0.00;0.00;;;27.00;51.10;;;;;;5090794;28;20225;-43
2024/01/10 04:34:22;;;;;;;0.00;0.00;;;27.10;51.10;;;;;;5092017;28;20202;-43
2024/01/10 04:36:53;;;;;;;0.00;0.00;;;27.10;51.00;;;;;;5093158;28;20669;-43
2024/01/10 04:39:24;;;;;;;0.00;0.00;;;27.10;51.00;;;;;;5111604;28;20205;-43
2024/01/10 04:41:56;;;;;;;0.00;0.00;;;27.10;51.00;;;;;;5103337;28;20209;-41
2024/01/10 04:44:27;;;;;;;0.00;0.00;;;27.10;51.00;;;;;;5091704;28;20190;-43
2024/01/10 04:46:58;;;;;;;0.00;0.00;;;27.10;51.00;;;;;;5091344;28;20205;-42
2024/01/10 04:49:28;;;;;;;0.00;0.00;;;27.10;50.90;;;;;;5091014;28;20233;-42
2024/01/10 04:51:59;;;;;;;0.00;0.00;;;27.10;50.90;;;;;;5091183;28;20697;-45
2024/01/10 04:54:30;;;;;;;0.00;0.00;;;27.10;50.90;;;;;;5090632;28;20633;-41
2024/01/10 04:57:02;;;;;;;0.00;0.00;;;27.10;50.90;;;;;;5090753;28;20201;-43
2024/01/10 04:59:33;;;;;;;0.00;0.00;;;27.10;50.90;;;;;;5091645;28;20653;-39
2024/01/10 05:02:04;;;;;;;0.00;0.00;;;27.10;50.80;;;;;;5091520;28;20213;-44
2024/01/10 05:04:34;;;;;;;0.00;0.00;;;27.20;50.90;;;;;;5091447;28;20205;-41
2024/01/10 05:07:05;;;;;;;0.00;0.00;;;27.20;50.90;;;;;;5094833;28;20201;-41
2024/01/10 05:09:35;;;;;;;0.00;0.00;;;27.20;50.90;;;;;;5110877;28;20595;-45
2024/01/10 05:12:08;;;;;;;0.00;0.00;;;27.20;50.90;;;;;;5110922;28;20216;-40
2024/01/10 05:14:39;;;;;;;0.00;0.00;;;27.20;50.90;;;;;;5111272;28;20204;-40
2024/01/10 05:17:11;;;;;;;0.00;0.00;;;27.20;50.90;;;;;;5111484;28;20197;-43
2024/01/10 05:19:41;;;;;;;0.00;0.00;;;27.20;50.80;;;;;;5088897;28;20247;-42
2024/01/10 05:22:12;;;;;;;0.00;0.00;;;27.20;50.80;;;;;;5090698;28;20218;-42
2024/01/10 05:24:43;;;;;;;0.00;0.00;;;27.20;50.80;;;;;;5092695;28;20205;-41
2024/01/10 05:27:15;;;;;;;0.00;0.00;;;27.20;50.80;;;;;;5095391;28;20856;-43
2024/01/10 05:29:47;;;;;;;0.00;0.00;;;27.30;50.80;;;;;;5094933;28;20275;-43
2024/01/10 05:32:17;;;;;;;0.00;0.00;;;27.30;50.80;;;;;;5094814;28;20229;-42
2024/01/10 05:34:48;;;;;;;0.00;0.00;;;27.30;51.40;;;;;;5095717;28;20221;-42
2024/01/10 05:37:19;;;;;;;0.00;0.00;;;27.30;50.80;;;;;;5100420;28;20281;-41
2024/01/10 05:39:49;;;;;;;0.00;0.00;;;27.30;50.80;;;;;;5114546;28;20226;-47
2024/01/10 05:42:22;;;;;;;0.00;0.00;;;27.30;50.80;;;;;;5111468;28;20728;-51
2024/01/10 05:44:53;;;;;;;0.00;0.00;;;27.40;50.70;;;;;;5094609;28;20202;-43
2024/01/10 05:47:23;;;;;;;0.00;0.00;;;27.40;50.60;;;;;;5095033;28;20701;-43
2024/01/10 05:49:54;;;;;;;0.00;0.00;;;27.40;50.50;;;;;;5094795;28;20726;-44
2024/01/10 05:52:25;;;;;;;0.00;0.00;;;27.40;50.60;;;;;;5095063;28;20245;-44
2024/01/10 05:54:55;;;;;;;0.00;0.00;;;27.30;50.50;;;;;;5093826;28;20221;-47
2024/01/10 05:57:28;;;;;;;0.00;0.00;;;27.40;50.50;;;;;;5093961;28;20669;-48
2024/01/10 05:59:59;;;;;;;0.00;0.00;;;27.40;50.50;;;;;;5094476;28;20195;-48
2024/01/10 06:02:29;;;;;;;0.00;0.00;;;27.40;50.50;;;;;;5094273;28;20213;-49
2024/01/10 06:05:00;;;;;;;0.00;0.00;;;27.40;50.50;;;;;;5094074;28;20197;-43
2024/01/10 06:07:31;;;;;;;0.00;0.00;;;27.40;50.50;;;;;;5099254;28;20569;-43
2024/01/10 06:10:02;;;;;;;0.00;0.00;;;27.50;50.50;;;;;;5113267;28;20229;-41
2024/01/10 06:12:34;;;;;;;0.00;0.00;;;27.50;50.50;;;;;;5109314;28;20213;-44
2024/01/10 06:15:05;;;;;;;0.00;0.00;;;27.50;50.50;;;;;;5094138;28;20218;-43
2024/01/10 06:17:36;;;;;;;0.00;0.00;;;27.50;50.40;;;;;;5094233;28;20197;-43
2024/01/10 06:20:07;;;;;;;0.00;0.00;;;27.50;50.40;;;;;;5093255;28;20456;-45
2024/01/10 06:22:37;;;;;;;0.00;0.00;;;27.50;50.40;;;;;;5093521;28;20242;-44
2024/01/10 06:25:08;;;;;;;0.00;0.00;;;27.50;50.40;;;;;;5093571;28;20247;-47
2024/01/10 06:27:41;;;;;;;0.00;0.00;;;27.50;50.30;;;;;;5094229;28;20676;-43
2024/01/10 06:30:12;;;;;;;0.00;0.00;;;27.50;50.30;;;;;;5093957;28;20645;-43
2024/01/10 06:32:43;;;;;;;0.00;0.00;;;27.60;50.30;;;;;;5093561;28;20217;-45
2024/01/10 06:35:13;;;;;;;0.00;0.00;;;27.60;50.30;;;;;;5093300;28;20202;-43
2024/01/10 06:37:45;;;;;;;0.00;0.00;;;27.60;50.30;;;;;;5101166;28;20497;-42
2024/01/10 06:40:16;;;;;;;0.00;0.00;;;27.60;50.30;;;;;;5092004;28;20304;-42
2024/01/10 06:42:49;;;;;;;0.00;0.00;;;27.60;50.30;;;;;;5092366;28;20195;-45
2024/01/10 06:45:20;;;;;;;0.00;0.00;;;27.60;50.30;;;;;;5093600;28;20263;-46
2024/01/10 06:47:50;;;;;;;0.00;0.00;;;27.60;50.20;;;;;;5093441;28;20233;-44
2024/01/10 06:50:21;;;;;;;0.00;0.00;;;27.60;50.20;;;;;;5093184;28;20232;-43
2024/01/10 06:52:52;;;;;;;0.00;0.00;;;27.60;50.20;;;;;;5093744;28;20190;-46
2024/01/10 06:55:24;;;;;;;0.00;0.00;;;27.60;50.20;;;;;;5092401;28;20201;-43
2024/01/10 06:57:56;;;;;;;0.00;0.00;;;27.60;50.10;;;;;;5092914;28;20197;-44
2024/01/10 07:00:27;;;;;;;0.00;0.00;;;27.60;50.10;;;;;;5093083;28;20190;-43
2024/01/10 07:02:57;;;;;;;0.00;0.00;;;27.60;50.10;;;;;;5093073;28;20193;-41
2024/01/10 07:05:28;;;;;;;0.00;0.00;;;27.60;50.10;;;;;;5092628;28;20198;-45
2024/01/10 07:07:58;;;;;;;0.00;0.00;;;27.60;50.10;;;;;;5103735;28;20201;-44
2024/01/10 07:10:29;;;;;;;0.00;0.00;;;27.60;50.00;;;;;;5112891;28;20221;-46
2024/01/10 07:13:04;;;;;;;0.00;0.00;;;27.60;50.00;;;;;;5113618;28;20646;-43
2024/01/10 07:15:34;;;;;;;0.00;0.00;;;27.60;50.00;;;;;;5112997;28;20246;-45
2024/01/10 07:18:05;;;;;;;0.00;0.00;;;27.60;50.10;;;;;;5112959;28;20197;-45
2024/01/10 07:20:37;;;;;;;0.00;0.00;;;27.60;50.10;;;;;;5113056;28;20649;-47
2024/01/10 07:23:08;;;;;;;0.00;0.00;;;27.60;50.10;;;;;;5113139;28;20201;-45
2024/01/10 07:25:39;;;;;;;0.00;0.00;;;27.60;50.10;;;;;;5112950;28;20193;-47
2024/01/10 07:28:11;;;;;;;0.00;0.00;;;27.60;50.10;;;;;;5113237;28;20260;-42
2024/01/10 07:30:42;;;;;;;0.00;0.00;;;27.60;50.20;;;;;;5112091;28;20237;-43
2024/01/10 07:33:15;;;;;;;0.00;0.00;;;27.60;50.10;;;;;;5112662;28;20201;-42
2024/01/10 07:35:45;;;;;;;0.00;0.00;;;27.60;50.10;;;;;;5113689;28;20602;-41
2024/01/10 07:38:16;;;;;;;0.00;0.00;;;27.60;50.10;;;;;;5102962;28;20541;-42
2024/01/10 07:40:47;;;;;;;0.00;0.00;;;27.60;50.10;;;;;;5092502;28;20213;-43
2024/01/10 07:43:19;;;;;;;0.00;0.00;;;27.60;50.00;;;;;;5092811;28;20281;-42
2024/01/10 07:45:50;;;;;;;0.00;0.00;;;27.60;49.90;;;;;;5091816;28;20209;-44
2024/01/10 07:48:21;;;;;;;0.00;0.00;;;27.60;49.80;;;;;;5092515;28;20198;-44
2024/01/10 07:50:51;;;;;;;0.00;0.00;;;27.60;49.80;;;;;;5092113;28;20247;-46
2024/01/10 07:53:22;;;;;;;0.00;0.00;;;27.60;49.80;;;;;;5091870;28;20198;-42
2024/01/10 07:55:52;;;;;;;0.00;0.00;;;27.60;49.80;;;;;;5092050;28;20209;-45
2024/01/10 07:58:25;;;;;;;0.00;0.00;;;27.60;49.80;;;;;;5092154;28;20202;-44
2024/01/10 08:00:56;;;;;;;0.00;0.00;;;27.60;49.70;;;;;;5092426;28;20237;-42
2024/01/10 08:03:26;;;;;;;0.00;0.00;;;27.50;49.70;;;;;;5091979;28;20273;-44
2024/01/10 08:05:57;;;;;;;0.00;0.00;;;27.50;49.70;;;;;;5076506;28;20194;-41
2024/01/10 08:08:28;;;;;;;0.00;0.00;;;27.50;49.70;;;;;;5106906;28;20208;-44
2024/01/10 08:10:59;;;;;;;0.00;0.00;;;27.50;49.70;;;;;;5111832;28;20285;-46
2024/01/10 08:13:32;;;;;;;0.00;0.00;;;27.50;49.70;;;;;;5112244;28;20201;-45
2024/01/10 08:16:03;;;;;;;0.00;0.00;;;27.50;49.70;;;;;;5098829;28;20193;-45
2024/01/10 08:18:34;;;;;;;0.00;0.00;;;27.50;49.60;;;;;;5092017;28;20654;-46
2024/01/10 08:21:05;;;;;;;0.00;0.00;;;27.50;49.60;;;;;;5091620;28;20218;-41
2024/01/10 08:23:36;;;;;;;0.00;0.00;;;27.50;49.60;;;;;;5108634;28;20233;-43
2024/01/10 08:26:10;;;;;;;0.00;0.00;;;27.50;49.60;;;;;;5112383;28;20201;-43
2024/01/10 08:28:42;;;;;;;0.00;0.00;;;27.50;49.60;;;;;;5112116;28;20236;-46
2024/01/10 08:31:13;;;;;;;0.00;0.00;;;27.50;49.60;;;;;;5111062;28;20720;-45
2024/01/10 08:33:43;;;;;;;0.00;0.00;;;27.40;49.40;;;;;;5111419;28;20201;-44
2024/01/10 08:36:14;;;;;;;0.00;0.00;;;27.40;49.40;;;;;;5111553;28;20229;-42
2024/01/10 08:38:45;;;;;;;0.00;0.00;;;27.40;49.40;;;;;;5093042;28;20285;-43
2024/01/10 08:41:16;;;;;;;0.00;0.00;;;27.40;49.40;;;;;;5087328;28;20616;-45
2024/01/10 08:43:49;;;;;;;0.00;0.00;;;27.40;49.40;;;;;;5087179;28;20194;-42
2024/01/10 08:46:20;;;;;;;0.00;0.00;;;27.40;49.40;;;;;;5087891;28;20212;-44
2024/01/10 08:48:51;;;;;;;0.00;0.00;;;27.30;49.40;;;;;;5087351;28;20251;-43
2024/01/10 08:51:21;;;;;;;0.00;0.00;;;27.30;49.40;;;;;;5087834;28;20229;-42
2024/01/10 08:53:52;;;;;;;0.00;0.00;;;27.30;49.40;;;;;;5087606;28;20251;-44
2024/01/10 08:56:23;;;;;;;0.00;0.00;;;27.30;49.40;;;;;;5087390;28;20233;-44
2024/01/10 08:58:56;;;;;;;0.00;0.00;;;27.30;49.40;;;;;;5087550;28;20281;-43
2024/01/10 09:01:27;;;;;;;0.00;0.00;;;27.30;49.50;;;;;;5088492;28;20214;-43
2024/01/10 09:03:57;;;;;;;0.00;0.00;;;27.20;49.40;;;;;;5087884;28;20198;-44
2024/01/10 09:06:28;;;;;;;0.00;0.00;;;27.20;49.40;;;;;;5087016;28;20672;-43
2024/01/10 09:08:59;;;;;;;0.00;0.00;;;27.20;50.00;;;;;;5090427;28;20190;-45
2024/01/10 09:11:29;;;;;;;0.00;0.00;;;27.20;49.40;;;;;;5094503;28;20233;-43
2024/01/10 09:14:02;;;;;;;0.00;0.00;;;27.20;49.40;;;;;;5092169;28;20237;-40
2024/01/10 09:16:32;;;;;;;0.00;0.00;;;27.20;49.40;;;;;;5087346;28;20563;-40
2024/01/10 09:19:03;;;;;;;0.00;0.00;;;27.20;49.40;;;;;;5087946;28;20200;-43
2024/01/10 09:21:34;;;;;;;0.00;0.00;;;27.20;49.40;;;;;;5089585;28;20222;-42
2024/01/10 09:24:08;;;;;;;0.00;0.00;;;27.20;49.40;;;;;;5087615;28;20198;-40
2024/01/10 09:26:39;;;;;;;0.00;0.00;;;27.20;49.50;;;;;;5087536;28;20201;-40
2024/01/10 09:29:11;;;;;;;0.00;0.00;;;27.10;49.40;;;;;;5087966;28;20200;-40
2024/01/10 09:31:42;;;;;;;0.00;0.00;;;27.10;49.40;;;;;;5087660;28;20232;-40
2024/01/10 09:34:13;;;;;;;0.00;0.00;;;27.10;49.40;;;;;;5087528;28;20198;-41
2024/01/10 09:36:43;;;;;;;0.00;0.00;;;27.10;49.40;;;;;;5088001;28;20198;-41
2024/01/10 09:39:14;;;;;;;0.00;0.00;;;27.10;49.40;;;;;;5090966;28;20194;-40
2024/01/10 09:41:50;;;;;;;0.00;0.00;;;27.00;49.40;;;;;;5087160;28;20223;-41
2024/01/10 09:44:24;;;;;;;0.00;0.00;;;27.00;49.40;;;;;;5085264;28;20194;-41
2024/01/10 09:46:56;;;;;;;0.00;0.00;;;27.00;49.40;;;;;;5087152;28;20202;-42
2024/01/10 09:49:27;;;;;;;0.00;0.00;;;27.00;49.40;;;;;;5086888;28;20191;-40
2024/01/10 09:52:02;;;;;;;0.00;0.00;;;27.00;49.40;;;;;;5087391;28;20233;-41
2024/01/10 09:54:34;;;;;;;0.00;0.00;;;27.00;49.50;;;;;;5087164;28;20692;-41
2024/01/10 09:57:05;;;;;;;0.00;0.00;;;27.00;49.50;;;;;;5086904;28;20662;-43
2024/01/10 09:59:38;;;;;;;0.00;0.00;;;27.00;49.50;;;;;;5086888;28;20648;-41
2024/01/10 10:02:08;;;;;;;0.00;0.00;;;27.00;49.50;;;;;;5083861;28;20791;-40
2024/01/10 10:04:42;;;;;;;0.00;0.00;;;27.00;49.50;;;;;;5086322;28;20209;-41
2024/01/10 10:07:12;;;;;;;0.00;0.00;;;26.90;49.40;;;;;;5090523;28;20202;-42
2024/01/10 10:09:43;;;;;;;0.00;0.00;;;26.90;49.40;;;;;;5089516;28;20201;-41
2024/01/10 10:12:14;;;;;;;0.00;0.00;;;26.90;49.40;;;;;;5090647;28;20670;-40
2024/01/10 10:14:46;;;;;;;0.00;0.00;;;26.90;49.40;;;;;;5091192;28;20194;-41
2024/01/10 10:17:20;;;;;;;0.00;0.00;;;26.90;49.40;;;;;;5090397;28;20205;-41
2024/01/10 10:19:51;;;;;;;0.00;0.00;;;26.90;49.40;;;;;;5090235;28;20564;-41
2024/01/10 10:22:21;;;;;;;0.00;0.00;;;26.80;49.30;;;;;;5090316;28;20225;-42
2024/01/10 10:24:53;;;;;;;0.00;0.00;;;26.80;49.40;;;;;;5090695;28;20190;-43
2024/01/10 10:27:24;;;;;;;0.00;0.00;;;26.80;49.30;;;;;;5090741;28;20233;-41
2024/01/10 10:29:56;;;;;;;0.00;0.00;;;26.80;49.40;;;;;;5089426;28;20205;-40
2024/01/10 10:32:28;;;;;;;0.00;0.00;;;26.70;49.30;;;;;;5090373;28;20226;-40
2024/01/10 10:35:00;;;;;;;0.00;0.00;;;26.80;49.40;;;;;;5090318;28;20213;-40
2024/01/10 10:37:31;;;;;;;0.00;0.00;;;26.70;49.40;;;;;;5096665;28;20201;-42
2024/01/10 10:40:02;;;;;;;0.00;0.00;;;26.70;49.30;;;;;;5091188;28;20693;-42
2024/01/10 10:42:33;;;;;;;0.00;0.00;;;26.70;49.20;;;;;;5090386;28;20218;-43
2024/01/10 10:45:07;;;;;;;0.00;0.00;;;26.70;49.20;;;;;;5090032;28;20604;-42
2024/01/10 10:47:43;;;;;;;0.00;0.00;;;26.70;49.20;;;;;;5090395;28;20564;-40
2024/01/10 10:50:16;;;;;;;0.00;0.00;;;26.60;49.20;;;;;;5090190;28;20197;-44
2024/01/10 10:52:49;;;;;;;0.00;0.00;;;26.60;49.20;;;;;;5089608;28;20279;-42
2024/01/10 10:55:21;;;;;;;0.00;0.00;;;26.60;49.20;;;;;;5089839;28;20206;-41
2024/01/10 10:57:52;;;;;;;0.00;0.00;;;26.60;49.20;;;;;;5089035;28;20282;-40
2024/01/10 11:00:27;;;;;;;0.00;0.00;;;26.60;49.20;;;;;;5090241;28;20682;-40
2024/01/10 11:02:58;;;;;;;0.00;0.00;;;26.50;49.20;;;;;;5089094;28;20198;-43
2024/01/10 11:05:30;;;;;;;0.00;0.00;;;26.50;49.20;;;;;;5089124;28;20601;-40
2024/01/10 11:08:04;;;;;;;0.00;0.00;;;26.50;49.20;;;;;;5099968;28;20197;-45
2024/01/10 11:10:37;;;;;;;0.00;0.00;;;26.50;49.20;;;;;;5089217;28;20213;-41
2024/01/10 11:13:22;;;;;;;0.00;0.00;;;26.50;49.20;;;;;;5089431;28;20202;-40
2024/01/10 11:16:17;;;;;;;0.00;0.00;;;26.50;49.20;;;;;;5089828;28;20795;-42
2024/01/10 11:19:21;;;;;;;0.00;0.00;;;26.40;49.10;;;;;;5086470;28;20193;-42
2024/01/10 11:22:07;;;;;;;0.00;0.00;;;26.40;49.10;;;;;;5088312;28;20697;-40
2024/01/10 11:24:38;;;;;;;0.00;0.00;;;26.40;49.20;;;;;;5089448;28;20561;-40
2024/01/10 11:27:14;;;;;;;0.00;0.00;;;26.30;49.10;;;;;;5088728;28;20665;-42
2024/01/10 11:29:48;;;;;;;0.00;0.00;;;26.30;49.20;;;;;;5089329;28;20649;-42
2024/01/10 11:32:24;;;;;;;0.00;0.00;;;26.30;49.20;;;;;;5088814;28;20312;-42
2024/01/10 11:34:59;;;;;;;0.00;0.00;;;26.30;49.20;;;;;;5084419;28;20293;-43
2024/01/10 11:37:41;;;;;;;0.00;0.00;;;26.30;49.80;;;;;;5095817;28;20208;-42
2024/01/10 11:40:14;;;;;;;0.00;0.00;;;26.30;49.20;;;;;;5091133;28;20328;-40
2024/01/10 11:42:48;;;;;;;0.00;0.00;;;26.30;49.20;;;;;;5087945;28;20213;-42
2024/01/10 11:45:39;;;;;;;0.00;0.00;;;26.20;49.10;;;;;;5089044;28;20197;-41
2024/01/10 11:48:14;;;;;;;0.00;0.00;;;26.20;49.10;;;;;;5088708;28;20194;-42
2024/01/10 11:50:46;;;;;;;0.00;0.00;;;26.20;49.10;;;;;;5088934;28;20221;-41
2024/01/10 11:53:39;;;;;;;0.00;0.00;;;26.20;49.10;;;;;;5088517;28;20205;-43
2024/01/10 11:56:15;;;;;;;0.00;0.00;;;26.20;49.10;;;;;;5089063;28;20666;-45
2024/01/10 12:02:00;;;;;;;0.00;0.00;;;26.20;49.10;;;;;;5086895;28;20241;-40
2024/01/10 12:04:34;;;;;;;0.00;0.00;;;26.10;49.00;;;;;;5088627;28;20626;-44
2024/01/10 12:07:07;;;;;;;0.00;0.00;;;26.10;49.10;;;;;;5091853;28;20200;-41
2024/01/10 12:09:37;;;;;;;0.00;0.00;;;26.10;49.10;;;;;;5097021;28;20646;-40
2024/01/10 12:12:09;;;;;;;0.00;0.00;;;26.00;49.00;;;;;;5087925;28;20322;-40
2024/01/10 12:14:39;;;;;;;0.00;0.00;;;26.10;49.10;;;;;;5077895;28;20190;-40
2024/01/10 12:17:10;;;;;;;0.00;0.00;;;26.00;49.00;;;;;;5087002;28;20251;-42
2024/01/10 12:19:44;;;;;;;0.00;0.00;;;26.00;49.00;;;;;;5087306;28;20201;-39
2024/01/10 12:22:15;;;;;;;0.00;0.00;;;26.00;49.00;;;;;;5087886;28;20217;-40
2024/01/10 12:24:52;;;;;;;0.00;0.00;;;26.00;49.00;;;;;;5088057;28;20898;-41
2024/01/10 12:27:23;;;;;;;0.00;0.00;;;26.00;49.00;;;;;;5087743;28;20197;-40
2024/01/10 12:29:54;;;;;;;0.00;0.00;;;25.90;48.90;;;;;;5087501;28;20198;-39
2024/01/10 12:32:24;;;;;;;0.00;0.00;;;25.90;48.90;;;;;;5087088;28;20568;-39
2024/01/10 12:35:03;;;;;;;0.00;0.00;;;25.90;48.90;;;;;;5079588;28;20198;-40
2024/01/10 12:37:34;;;;;;;0.00;0.00;;;25.90;48.90;;;;;;5087743;28;20197;-40
2024/01/10 12:40:05;;;;;;;0.00;0.00;;;25.90;48.90;;;;;;5087297;28;20201;-39
2024/01/10 12:42:36;;;;;;;0.00;0.00;;;25.90;48.90;;;;;;5088929;28;20793;-41
2024/01/10 12:45:07;;;;;;;0.00;0.00;;;25.90;48.90;;;;;;5091524;28;20654;-40
2024/01/10 12:47:39;;;;;;;0.00;0.00;;;25.90;48.90;;;;;;5091848;28;20201;-41
2024/01/10 12:50:13;;;;;;;0.00;0.00;;;25.80;48.90;;;;;;5091786;28;20195;-40
2024/01/10 12:52:45;;;;;;;0.00;0.00;;;25.80;48.90;;;;;;5091580;28;20230;-41
2024/01/10 12:55:16;;;;;;;0.00;0.00;;;25.80;48.90;;;;;;5089047;28;20218;-40
2024/01/10 12:57:46;;;;;;;0.00;0.00;;;25.80;48.90;;;;;;5090266;28;20186;-40
2024/01/10 13:00:17;;;;;;;0.00;0.00;;;25.80;48.90;;;;;;5091176;28;20250;-40
2024/01/10 13:02:49;;;;;;;0.00;0.00;;;25.70;48.80;;;;;;5090943;28;20595;-41
2024/01/10 13:05:21;;;;;;;0.00;0.00;;;25.70;48.90;;;;;;5090845;28;20194;-41
2024/01/10 13:07:52;;;;;;;0.00;0.00;;;25.70;48.90;;;;;;5088893;28;20189;-40
2024/01/10 13:10:22;;;;;;;0.00;0.00;;;25.70;48.90;;;;;;5090981;28;20646;-40
2024/01/10 13:12:54;;;;;;;0.00;0.00;;;25.70;48.90;;;;;;5088776;28;20237;-40
2024/01/10 13:15:24;;;;;;;0.00;0.00;;;25.70;48.90;;;;;;5091243;28;20194;-41